Time;durP1;ratioP1;P1;durP2;ratioP2;P2;SDS_P1;SDS_P2;PMS_P1;PMS_P2;Temp;Humidity;BMP_temperature;BMP_pressure;BME280_temperature;BME280_humidity;BME280_pressure;Samples;Min_cycle;Max_cycle;Signal;HPM_P1;HPM_P2
2023/03/22 00:06:45;;;;;;;8.23;4.63;;;9.90;99.90;;;;;;20874511;23;20052;-79
2023/03/22 00:16:47;;;;;;;9.53;4.20;;;9.60;99.90;;;;;;20913012;28;20029;-79
2023/03/22 00:26:48;;;;;;;6.53;3.85;;;9.40;99.90;;;;;;20922349;28;20037;-79
2023/03/22 00:36:50;;;;;;;5.50;3.63;;;9.40;99.90;;;;;;20922281;28;20035;-79
2023/03/22 00:46:51;;;;;;;6.82;3.67;;;9.40;99.90;;;;;;20929387;28;20037;-79
2023/03/22 00:56:52;;;;;;;9.47;3.50;;;9.20;99.90;;;;;;20932070;28;20540;-78
2023/03/22 01:07:00;;;;;;;6.88;3.35;;;9.00;99.90;;;;;;20930608;28;20528;-78
2023/03/22 01:17:04;;;;;;;5.07;3.30;;;8.80;99.90;;;;;;20931584;28;20458;-79
2023/03/22 01:27:05;;;;;;;7.95;3.15;;;8.50;99.90;;;;;;20932545;28;20029;-78
2023/03/22 01:37:06;;;;;;;10.73;3.40;;;8.40;99.90;;;;;;20931693;28;20025;-78
2023/03/22 01:47:10;;;;;;;7.35;2.85;;;8.20;99.90;;;;;;20928875;28;20447;-78
2023/03/22 01:57:12;;;;;;;9.88;4.30;;;8.20;99.90;;;;;;20926124;28;20037;-78
2023/03/22 02:07:24;;;;;;;7.43;3.35;;;7.80;99.90;;;;;;20924509;28;20036;-78
2023/03/22 02:17:30;;;;;;;6.43;3.38;;;7.50;99.90;;;;;;20911181;28;20033;-78
2023/03/22 02:28:07;;;;;;;5.35;3.45;;;7.60;99.90;;;;;;20921450;28;20039;-78
2023/03/22 02:38:31;;;;;;;10.73;5.40;;;7.30;99.90;;;;;;20924228;28;20040;-79
2023/03/22 02:48:52;;;;;;;11.23;4.15;;;7.00;99.90;;;;;;20919918;28;20077;-77
2023/03/22 02:58:58;;;;;;;8.07;3.60;;;6.70;99.90;;;;;;20922829;28;20049;-78
2023/03/22 03:09:03;;;;;;;11.80;4.15;;;6.60;99.90;;;;;;20918143;28;20136;-78
2023/03/22 03:19:13;;;;;;;8.23;3.97;;;6.60;99.90;;;;;;20899875;28;20446;-78
2023/03/22 03:29:47;;;;;;;15.02;4.20;;;6.40;99.90;;;;;;20923948;28;20097;-77
2023/03/22 03:39:57;;;;;;;9.98;3.75;;;6.10;99.90;;;;;;20898583;28;20045;-77
2023/03/22 03:49:58;;;;;;;14.13;4.72;;;6.00;99.90;;;;;;20835095;28;20040;-78
2023/03/22 03:59:59;;;;;;;;;;;5.90;99.90;;;;;;20837416;28;20040;-78
2023/03/22 04:10:14;;;;;;;6.60;3.17;;;5.80;99.90;;;;;;20862745;28;19912;-78
2023/03/22 04:20:15;;;;;;;;;;;5.90;99.90;;;;;;20935072;28;20116;-78
2023/03/22 04:30:21;;;;;;;6.85;2.72;;;5.90;99.90;;;;;;20916794;28;20043;-77
2023/03/22 04:40:47;;;;;;;6.68;3.05;;;5.80;99.90;;;;;;20866761;28;20113;-77
2023/03/22 04:50:54;;;;;;;6.20;3.35;;;5.40;99.90;;;;;;20840941;28;20030;-77
2023/03/22 05:01:00;;;;;;;8.20;3.38;;;5.20;99.90;;;;;;20888695;28;20111;-77
2023/03/22 05:11:09;;;;;;;11.15;3.75;;;5.20;99.90;;;;;;20897303;28;20021;-73
2023/03/22 05:21:16;;;;;;;8.55;3.78;;;5.30;99.90;;;;;;20910344;28;20079;-75
2023/03/22 05:31:23;;;;;;;6.80;2.88;;;5.50;99.90;;;;;;20900302;28;20402;-76
2023/03/22 05:41:33;;;;;;;;;;;5.10;99.90;;;;;;20914588;28;20033;-77
2023/03/22 05:51:40;;;;;;;3.92;2.33;;;5.20;99.90;;;;;;20914283;28;19934;-78
2023/03/22 06:01:41;;;;;;;6.13;2.28;;;4.80;99.90;;;;;;20899523;28;20071;-77
2023/03/22 06:11:48;;;;;;;7.75;2.85;;;4.60;99.90;;;;;;20912419;28;20422;-77
2023/03/22 06:21:52;;;;;;;8.18;3.55;;;5.40;99.90;;;;;;20910915;28;20426;-77
2023/03/22 06:31:55;;;;;;;10.68;2.88;;;6.00;99.90;;;;;;20914206;28;20033;-78
2023/03/22 06:41:56;;;;;;;9.25;2.75;;;7.00;99.90;;;;;;20920803;28;20028;-78
2023/03/22 06:51:57;;;;;;;7.88;3.10;;;7.70;99.90;;;;;;20918651;28;20078;-78
2023/03/22 07:01:59;;;;;;;4.28;2.83;;;8.70;99.90;;;;;;20915578;28;20523;-78
2023/03/22 07:12:00;;;;;;;4.28;2.58;;;9.70;99.90;;;;;;20911664;28;20032;-78
2023/03/22 07:22:01;;;;;;;7.85;3.33;;;10.60;99.90;;;;;;20911307;28;20499;-78
2023/03/22 07:32:02;;;;;;;7.73;2.87;;;11.30;99.90;;;;;;20909433;28;20112;-78
2023/03/22 07:42:17;;;;;;;7.43;3.70;;;12.20;99.90;;;;;;20918984;28;20426;-78
2023/03/22 07:52:36;;;;;;;6.07;2.97;;;12.90;99.90;;;;;;20917675;28;20040;-78
2023/03/22 08:02:38;;;;;;;7.70;2.90;;;13.40;99.90;;;;;;20863498;28;20503;-78
2023/03/22 08:12:40;;;;;;;7.53;3.15;;;13.70;99.90;;;;;;20893307;28;20368;-78
2023/03/22 08:22:54;;;;;;;7.68;3.17;;;13.70;99.90;;;;;;20938822;28;20033;-79
2023/03/22 08:33:01;;;;;;;5.10;3.15;;;15.50;99.90;;;;;;20935512;28;20037;-78
2023/03/22 08:43:02;;;;;;;;;;;16.20;99.90;;;;;;20934790;28;20071;-76
2023/03/22 08:53:04;;;;;;;10.65;4.45;;;17.40;99.90;;;;;;20930890;28;20054;-78
2023/03/22 09:03:08;;;;;;;5.10;2.72;;;17.40;99.90;;;;;;20911096;28;20029;-77
2023/03/22 09:13:12;;;;;;;6.05;3.10;;;18.80;99.90;;;;;;20929022;28;20407;-79
2023/03/22 09:23:18;;;;;;;3.67;2.50;;;19.40;99.90;;;;;;20927096;28;20037;-79
2023/03/22 09:33:19;;;;;;;6.32;2.17;;;19.90;99.90;;;;;;20901773;28;20499;-78
2023/03/22 09:43:24;;;;;;;6.40;2.65;;;20.00;99.90;;;;;;20888775;28;20026;-78
2023/03/22 09:53:27;;;;;;;4.13;2.40;;;20.60;99.90;;;;;;20842153;28;20500;-80
2023/03/22 10:03:36;;;;;;;5.20;2.40;;;20.30;99.90;;;;;;20841257;28;20040;-79
2023/03/22 10:14:03;;;;;;;3.72;1.80;;;19.70;99.90;;;;;;20891794;28;20040;-79
2023/03/22 10:24:15;;;;;;;2.20;1.10;;;20.00;99.90;;;;;;20963108;28;20042;-79
2023/03/22 10:34:23;;;;;;;3.53;1.10;;;19.40;99.90;;;;;;20943409;28;20111;-78
2023/03/22 10:44:27;;;;;;;5.45;1.40;;;19.70;98.50;;;;;;20965984;28;20423;-76
2023/03/22 10:54:29;;;;;;;1.80;1.05;;;19.00;99.90;;;;;;20962814;28;20630;-78
2023/03/22 11:04:30;;;;;;;2.25;1.27;;;19.40;99.00;;;;;;20938860;28;20040;-78
2023/03/22 11:14:35;;;;;;;5.30;2.33;;;18.90;98.90;;;;;;20937571;28;20085;-79
2023/03/22 11:24:36;;;;;;;3.65;1.10;;;20.00;98.00;;;;;;20954365;28;20029;-79
2023/03/22 11:34:37;;;;;;;2.30;0.83;;;19.60;96.70;;;;;;20945144;28;20120;-80
2023/03/22 11:44:38;;;;;;;4.43;0.90;;;20.10;96.40;;;;;;20930745;28;20033;-77
2023/03/22 11:54:41;;;;;;;2.97;1.00;;;19.60;96.80;;;;;;20915155;28;20063;-78
2023/03/22 12:04:43;;;;;;;1.95;1.27;;;19.90;96.50;;;;;;20930331;28;20037;-79
2023/03/22 12:14:56;;;;;;;2.78;1.17;;;20.40;96.70;;;;;;20918601;28;20040;-80
2023/03/22 12:24:58;;;;;;;5.45;1.15;;;21.10;95.40;;;;;;20918605;28;20029;-80
2023/03/22 12:34:59;;;;;;;3.63;1.10;;;20.10;95.60;;;;;;20918205;28;20456;-79
2023/03/22 12:45:23;;;;;;;2.63;1.00;;;21.00;95.50;;;;;;20952336;28;20029;-78
2023/03/22 12:55:29;;;;;;;1.95;1.40;;;21.00;94.50;;;;;;20975996;28;20048;-80
2023/03/22 13:05:32;;;;;;;1.02;0.80;;;21.00;95.00;;;;;;20985786;28;20043;-78
2023/03/22 13:15:36;;;;;;;1.63;0.88;;;20.80;94.40;;;;;;20979952;28;20039;-78
2023/03/22 13:25:56;;;;;;;1.80;0.90;;;20.40;94.40;;;;;;20983166;28;20032;-79
2023/03/22 13:36:04;;;;;;;0.90;0.52;;;20.70;93.00;;;;;;20985579;28;20043;-77
2023/03/22 13:46:18;;;;;;;3.17;0.98;;;21.20;92.30;;;;;;20980434;28;20040;-78
2023/03/22 13:56:51;;;;;;;2.25;1.00;;;22.20;93.50;;;;;;20975288;28;20320;-80
2023/03/22 14:06:58;;;;;;;0.95;0.70;;;22.10;91.50;;;;;;20977200;28;20036;-80
2023/03/22 14:17:10;;;;;;;1.08;0.70;;;22.30;91.40;;;;;;20983483;28;20034;-80
2023/03/22 14:27:17;;;;;;;0.98;0.80;;;21.00;92.00;;;;;;20993632;28;20088;-80
2023/03/22 14:37:18;;;;;;;1.75;0.70;;;21.90;92.40;;;;;;20972635;28;20029;-78
2023/03/22 14:47:32;;;;;;;1.65;0.80;;;22.00;93.70;;;;;;20963172;28;20036;-79
2023/03/22 14:57:40;;;;;;;1.45;1.00;;;22.20;92.60;;;;;;20966428;28;20041;-79
2023/03/22 15:07:53;;;;;;;1.38;0.90;;;22.00;92.80;;;;;;20979295;28;20033;-77
2023/03/22 15:17:55;;;;;;;1.73;0.80;;;21.60;92.40;;;;;;20971429;28;20075;-79
2023/03/22 15:27:56;;;;;;;1.25;0.60;;;22.30;92.60;;;;;;20974536;28;20025;-80
2023/03/22 15:38:02;;;;;;;2.80;0.70;;;21.60;93.80;;;;;;20978617;28;20037;-78
2023/03/22 15:48:18;;;;;;;0.90;0.57;;;21.80;93.30;;;;;;20962476;28;20036;-77
2023/03/22 15:58:31;;;;;;;1.13;0.70;;;21.70;93.20;;;;;;20926553;28;20044;-79
2023/03/22 16:08:32;;;;;;;1.55;0.73;;;21.30;94.00;;;;;;20923136;28;20044;-78
2023/03/22 16:18:33;;;;;;;0.90;0.63;;;20.50;94.90;;;;;;20936294;28;20480;-79
2023/03/22 16:28:34;;;;;;;1.40;0.70;;;20.00;95.30;;;;;;20935493;28;20033;-78
2023/03/22 16:38:35;;;;;;;2.47;1.07;;;19.50;96.30;;;;;;20931663;28;20344;-78
2023/03/22 16:48:36;;;;;;;1.90;1.00;;;19.40;96.80;;;;;;20917344;28;20104;-78
2023/03/22 16:58:37;;;;;;;3.17;0.80;;;19.00;97.10;;;;;;20935645;28;20090;-78
2023/03/22 17:08:38;;;;;;;2.53;1.00;;;18.60;98.60;;;;;;20931354;28;20029;-78
2023/03/22 17:18:39;;;;;;;1.38;0.88;;;18.10;99.90;;;;;;20936615;28;20605;-78
2023/03/22 17:28:40;;;;;;;3.40;1.23;;;17.30;99.90;;;;;;20927529;28;20112;-78
2023/03/22 17:38:41;;;;;;;4.57;1.77;;;17.00;99.90;;;;;;20916476;28;20029;-77
2023/03/22 17:48:42;;;;;;;5.00;1.97;;;16.10;99.90;;;;;;20914046;28;20097;-78
2023/03/22 17:58:43;;;;;;;2.90;1.23;;;15.80;99.90;;;;;;20926554;28;20021;-79
2023/03/22 18:08:44;;;;;;;4.47;1.57;;;15.30;99.90;;;;;;20926138;28;20088;-79
2023/03/22 18:18:45;;;;;;;3.23;1.27;;;14.90;99.90;;;;;;20860101;28;20110;-79
2023/03/22 18:28:45;;;;;;;4.33;1.30;;;14.60;99.90;;;;;;20848614;28;20030;-78
2023/03/22 18:38:46;;;;;;;2.53;1.10;;;14.10;99.90;;;;;;20850088;28;20469;-78
2023/03/22 18:48:48;;;;;;;3.00;1.50;;;13.70;99.90;;;;;;20920967;28;20033;-77
2023/03/22 18:58:49;;;;;;;6.45;1.60;;;13.50;99.90;;;;;;20910677;28;20032;-77
2023/03/22 19:08:50;;;;;;;2.60;1.60;;;13.30;99.90;;;;;;20906608;28;20072;-77
2023/03/22 19:18:51;;;;;;;5.23;2.23;;;13.00;99.90;;;;;;20905778;28;20033;-77
2023/03/22 19:28:58;;;;;;;3.57;2.27;;;12.50;99.90;;;;;;20908536;28;20395;-77
2023/03/22 19:39:00;;;;;;;7.90;2.03;;;12.60;99.90;;;;;;20909147;28;20064;-77
2023/03/22 19:49:01;;;;;;;4.15;2.00;;;12.60;99.90;;;;;;20919832;28;20044;-77
2023/03/22 19:59:02;;;;;;;3.73;2.10;;;12.50;99.90;;;;;;20922209;28;20423;-77
2023/03/22 20:09:06;;;;;;;3.70;2.10;;;11.90;99.90;;;;;;20917909;28;20029;-77
2023/03/22 20:19:07;;;;;;;5.13;2.50;;;11.90;99.90;;;;;;20900318;28;20032;-77
2023/03/22 20:29:08;;;;;;;8.77;4.00;;;11.60;99.90;;;;;;20928252;28;20028;-77
2023/03/22 20:39:08;;;;;;;6.43;3.30;;;11.90;99.90;;;;;;20942075;28;20054;-78
2023/03/22 20:49:09;;;;;;;7.50;3.33;;;11.30;99.90;;;;;;20899092;28;20025;-77
2023/03/22 20:59:11;;;;;;;5.47;2.13;;;11.10;99.90;;;;;;20876875;28;20041;-77
2023/03/22 21:09:12;;;;;;;2.00;1.30;;;11.20;99.90;;;;;;20909906;28;20391;-78
2023/03/22 21:19:13;;;;;;;3.20;1.70;;;10.80;99.90;;;;;;20933940;28;20068;-79
2023/03/22 21:29:13;;;;;;;2.93;1.87;;;10.90;99.90;;;;;;20933476;28;20036;-77
2023/03/22 21:39:17;;;;;;;4.40;1.93;;;10.80;99.90;;;;;;20931931;28;20040;-78
2023/03/22 21:49:24;;;;;;;20.75;1.92;;;10.60;99.90;;;;;;20917305;28;20491;-78
2023/03/22 21:59:26;;;;;;;4.25;1.80;;;10.50;99.90;;;;;;20908740;28;20041;-77
2023/03/22 22:09:27;;;;;;;3.83;2.38;;;10.20;99.90;;;;;;20908917;28;20040;-78
2023/03/22 22:19:28;;;;;;;3.47;2.10;;;10.20;99.90;;;;;;20905906;28;20034;-77
2023/03/22 22:29:29;;;;;;;7.87;2.60;;;10.30;99.90;;;;;;20896010;28;20047;-77
2023/03/22 22:39:30;;;;;;;8.83;2.00;;;10.30;99.90;;;;;;20892109;28;20323;-77
2023/03/22 22:49:31;;;;;;;8.83;2.67;;;10.30;99.90;;;;;;20891833;28;20537;-77
2023/03/22 22:59:31;;;;;;;6.20;2.30;;;10.20;99.90;;;;;;20911157;28;20057;-77
2023/03/22 23:09:36;;;;;;;8.47;2.10;;;9.90;99.90;;;;;;20907190;28;20029;-77
2023/03/22 23:19:37;;;;;;;6.78;3.83;;;10.00;99.90;;;;;;20909846;28;20553;-77
2023/03/22 23:29:38;;;;;;;8.57;2.73;;;10.20;99.90;;;;;;20911180;28;20418;-78
2023/03/22 23:39:39;;;;;;;5.22;2.65;;;10.20;99.90;;;;;;20907855;28;20037;-77
2023/03/22 23:49:41;;;;;;;5.10;2.65;;;10.10;99.90;;;;;;20907202;28;20420;-78
2023/03/22 23:59:42;;;;;;;4.10;2.23;;;9.80;99.90;;;;;;20893174;28;20044;-77
